sensor_id;sensor_type;location;lat;lon;timestamp;pressure;altitude;pressure_sealevel;temperature;humidity
73103;BME280;61294;65.988;29.172;2023-07-31T00:02:15;97574.31;;;13.86;100.00
73103;BME280;61294;65.988;29.172;2023-07-31T00:04:41;97578.69;;;13.87;100.00
73103;BME280;61294;65.988;29.172;2023-07-31T00:07:07;97580.47;;;13.86;100.00
73103;BME280;61294;65.988;29.172;2023-07-31T00:09:33;97573.47;;;13.84;100.00
73103;BME280;61294;65.988;29.172;2023-07-31T00:11:59;97556.47;;;13.66;100.00
73103;BME280;61294;65.988;29.172;2023-07-31T00:14:25;97572.69;;;13.81;100.00
73103;BME280;61294;65.988;29.172;2023-07-31T00:16:51;97579.72;;;13.83;100.00
73103;BME280;61294;65.988;29.172;2023-07-31T00:19:17;97547.81;;;13.60;100.00
73103;BME280;61294;65.988;29.172;2023-07-31T00:21:44;97577.38;;;13.73;100.00
73103;BME280;61294;65.988;29.172;2023-07-31T00:24:09;97577.16;;;13.79;100.00
73103;BME280;61294;65.988;29.172;2023-07-31T00:26:35;97576.19;;;13.82;100.00
73103;BME280;61294;65.988;29.172;2023-07-31T00:29:01;97576.25;;;13.80;100.00
73103;BME280;61294;65.988;29.172;2023-07-31T00:31:27;97539.66;;;13.67;100.00
73103;BME280;61294;65.988;29.172;2023-07-31T00:33:52;97567.34;;;13.83;100.00
73103;BME280;61294;65.988;29.172;2023-07-31T00:36:18;97565.59;;;13.82;100.00
73103;BME280;61294;65.988;29.172;2023-07-31T00:38:44;97564.03;;;13.76;100.00
73103;BME280;61294;65.988;29.172;2023-07-31T00:41:10;97565.28;;;13.66;100.00
73103;BME280;61294;65.988;29.172;2023-07-31T00:43:36;97566.97;;;13.69;100.00
73103;BME280;61294;65.988;29.172;2023-07-31T00:46:02;97570.91;;;13.57;100.00
73103;BME280;61294;65.988;29.172;2023-07-31T00:48:28;97558.31;;;13.63;100.00
73103;BME280;61294;65.988;29.172;2023-07-31T00:50:54;97568.75;;;13.68;100.00
73103;BME280;61294;65.988;29.172;2023-07-31T00:53:20;97579.16;;;13.73;100.00
73103;BME280;61294;65.988;29.172;2023-07-31T00:55:46;97567.19;;;13.61;100.00
73103;BME280;61294;65.988;29.172;2023-07-31T00:58:12;97577.66;;;13.66;100.00
73103;BME280;61294;65.988;29.172;2023-07-31T01:00:38;97584.72;;;13.65;100.00
73103;BME280;61294;65.988;29.172;2023-07-31T01:03:03;97590.94;;;13.64;100.00
73103;BME280;61294;65.988;29.172;2023-07-31T01:08:41;97584.25;;;13.52;100.00
73103;BME280;61294;65.988;29.172;2023-07-31T01:11:17;97600.81;;;13.59;100.00
73103;BME280;61294;65.988;29.172;2023-07-31T01:13:45;97591.84;;;13.63;100.00
73103;BME280;61294;65.988;29.172;2023-07-31T01:16:11;97577.03;;;13.57;100.00
73103;BME280;61294;65.988;29.172;2023-07-31T01:18:37;97591.91;;;13.61;100.00
73103;BME280;61294;65.988;29.172;2023-07-31T01:21:41;97588.34;;;13.62;100.00
73103;BME280;61294;65.988;29.172;2023-07-31T01:24:21;97596.34;;;13.59;100.00
73103;BME280;61294;65.988;29.172;2023-07-31T01:26:55;97608.91;;;13.54;100.00
73103;BME280;61294;65.988;29.172;2023-07-31T01:30:16;97595.28;;;13.40;100.00
73103;BME280;61294;65.988;29.172;2023-07-31T01:32:39;97593.88;;;13.55;100.00
73103;BME280;61294;65.988;29.172;2023-07-31T01:35:06;97607.94;;;13.57;100.00
73103;BME280;61294;65.988;29.172;2023-07-31T01:37:33;97582.00;;;13.41;100.00
73103;BME280;61294;65.988;29.172;2023-07-31T01:39:59;97615.88;;;13.57;100.00
73103;BME280;61294;65.988;29.172;2023-07-31T01:42:24;97611.38;;;13.59;100.00
73103;BME280;61294;65.988;29.172;2023-07-31T01:44:50;97619.31;;;13.59;100.00
73103;BME280;61294;65.988;29.172;2023-07-31T01:47:16;97622.75;;;13.62;100.00
73103;BME280;61294;65.988;29.172;2023-07-31T01:49:42;97635.03;;;13.63;100.00
73103;BME280;61294;65.988;29.172;2023-07-31T01:52:08;97630.75;;;13.59;100.00
73103;BME280;61294;65.988;29.172;2023-07-31T01:54:34;97642.19;;;13.61;100.00
73103;BME280;61294;65.988;29.172;2023-07-31T01:56:59;97647.34;;;13.64;100.00
73103;BME280;61294;65.988;29.172;2023-07-31T01:59:25;97659.75;;;13.64;100.00
73103;BME280;61294;65.988;29.172;2023-07-31T02:01:51;97660.66;;;13.63;100.00
73103;BME280;61294;65.988;29.172;2023-07-31T02:04:17;97672.19;;;13.60;100.00
73103;BME280;61294;65.988;29.172;2023-07-31T02:06:43;97668.63;;;13.61;100.00
73103;BME280;61294;65.988;29.172;2023-07-31T02:09:09;97669.59;;;13.59;100.00
73103;BME280;61294;65.988;29.172;2023-07-31T02:11:35;97656.56;;;13.53;100.00
73103;BME280;61294;65.988;29.172;2023-07-31T02:14:01;97671.22;;;13.63;100.00
73103;BME280;61294;65.988;29.172;2023-07-31T02:16:27;97639.91;;;13.49;100.00
73103;BME280;61294;65.988;29.172;2023-07-31T02:18:52;97630.63;;;13.37;100.00
73103;BME280;61294;65.988;29.172;2023-07-31T02:21:18;97667.63;;;13.66;100.00
73103;BME280;61294;65.988;29.172;2023-07-31T02:23:44;97674.63;;;13.67;100.00
73103;BME280;61294;65.988;29.172;2023-07-31T02:26:10;97675.50;;;13.67;100.00
73103;BME280;61294;65.988;29.172;2023-07-31T02:28:36;97671.03;;;13.69;100.00
73103;BME280;61294;65.988;29.172;2023-07-31T02:31:02;97667.41;;;13.72;100.00
73103;BME280;61294;65.988;29.172;2023-07-31T02:33:28;97658.91;;;13.62;100.00
73103;BME280;61294;65.988;29.172;2023-07-31T02:35:54;97671.44;;;13.57;100.00
73103;BME280;61294;65.988;29.172;2023-07-31T02:38:20;97683.63;;;13.61;100.00
73103;BME280;61294;65.988;29.172;2023-07-31T02:40:45;97682.78;;;13.60;100.00
73103;BME280;61294;65.988;29.172;2023-07-31T02:43:11;97688.84;;;13.64;100.00
73103;BME280;61294;65.988;29.172;2023-07-31T02:45:37;97690.88;;;13.56;100.00
73103;BME280;61294;65.988;29.172;2023-07-31T02:48:03;97688.16;;;13.57;100.00
73103;BME280;61294;65.988;29.172;2023-07-31T02:50:29;97690.59;;;13.63;100.00
73103;BME280;61294;65.988;29.172;2023-07-31T02:52:55;97695.16;;;13.60;100.00
73103;BME280;61294;65.988;29.172;2023-07-31T02:55:21;97668.06;;;13.52;100.00
73103;BME280;61294;65.988;29.172;2023-07-31T02:57:46;97694.09;;;13.66;100.00
73103;BME280;61294;65.988;29.172;2023-07-31T03:00:13;97698.38;;;13.70;100.00
73103;BME280;61294;65.988;29.172;2023-07-31T03:02:38;97692.09;;;13.72;100.00
73103;BME280;61294;65.988;29.172;2023-07-31T03:05:04;97669.53;;;13.60;100.00
73103;BME280;61294;65.988;29.172;2023-07-31T03:07:30;97692.88;;;13.76;100.00
73103;BME280;61294;65.988;29.172;2023-07-31T03:09:56;97701.47;;;13.83;100.00
73103;BME280;61294;65.988;29.172;2023-07-31T03:12:22;97708.53;;;13.82;100.00
73103;BME280;61294;65.988;29.172;2023-07-31T03:14:48;97717.53;;;13.76;100.00
73103;BME280;61294;65.988;29.172;2023-07-31T03:17:15;97693.97;;;13.69;100.00
73103;BME280;61294;65.988;29.172;2023-07-31T03:19:40;97712.91;;;13.83;100.00
73103;BME280;61294;65.988;29.172;2023-07-31T03:22:06;97708.34;;;13.88;100.00
73103;BME280;61294;65.988;29.172;2023-07-31T03:24:32;97712.72;;;13.89;100.00
73103;BME280;61294;65.988;29.172;2023-07-31T03:26:58;97716.13;;;13.93;100.00
73103;BME280;61294;65.988;29.172;2023-07-31T03:29:24;97705.38;;;13.97;100.00
73103;BME280;61294;65.988;29.172;2023-07-31T03:31:49;97720.31;;;14.00;100.00
73103;BME280;61294;65.988;29.172;2023-07-31T03:34:15;97721.28;;;13.97;100.00
73103;BME280;61294;65.988;29.172;2023-07-31T03:36:41;97723.84;;;13.99;100.00
73103;BME280;61294;65.988;29.172;2023-07-31T03:39:07;97718.63;;;13.97;100.00
73103;BME280;61294;65.988;29.172;2023-07-31T03:41:33;97719.78;;;13.89;100.00
73103;BME280;61294;65.988;29.172;2023-07-31T03:43:59;97726.66;;;13.94;100.00
73103;BME280;61294;65.988;29.172;2023-07-31T03:46:25;97725.94;;;13.89;100.00
73103;BME280;61294;65.988;29.172;2023-07-31T03:48:51;97730.78;;;14.03;100.00
73103;BME280;61294;65.988;29.172;2023-07-31T03:51:17;97733.16;;;14.12;100.00
73103;BME280;61294;65.988;29.172;2023-07-31T03:53:43;97726.84;;;14.15;100.00
73103;BME280;61294;65.988;29.172;2023-07-31T03:56:10;97746.97;;;14.21;100.00
73103;BME280;61294;65.988;29.172;2023-07-31T03:58:35;97742.44;;;14.24;100.00
73103;BME280;61294;65.988;29.172;2023-07-31T04:01:03;97722.59;;;14.11;100.00
73103;BME280;61294;65.988;29.172;2023-07-31T04:03:29;97743.78;;;14.11;100.00
73103;BME280;61294;65.988;29.172;2023-07-31T04:05:55;97741.59;;;14.24;100.00
73103;BME280;61294;65.988;29.172;2023-07-31T04:08:22;97727.75;;;14.15;100.00
73103;BME280;61294;65.988;29.172;2023-07-31T04:10:48;97728.97;;;14.30;100.00
73103;BME280;61294;65.988;29.172;2023-07-31T04:13:14;97724.63;;;14.29;100.00
73103;BME280;61294;65.988;29.172;2023-07-31T04:15:40;97717.13;;;14.41;100.00
73103;BME280;61294;65.988;29.172;2023-07-31T04:18:06;97726.56;;;14.49;100.00
73103;BME280;61294;65.988;29.172;2023-07-31T04:20:31;97711.75;;;14.44;100.00
73103;BME280;61294;65.988;29.172;2023-07-31T04:22:57;97734.19;;;14.59;100.00
73103;BME280;61294;65.988;29.172;2023-07-31T04:25:23;97730.69;;;14.58;100.00
73103;BME280;61294;65.988;29.172;2023-07-31T04:27:49;97721.09;;;14.54;100.00
73103;BME280;61294;65.988;29.172;2023-07-31T04:30:15;97718.56;;;14.51;100.00
73103;BME280;61294;65.988;29.172;2023-07-31T04:32:41;97732.97;;;14.69;100.00
73103;BME280;61294;65.988;29.172;2023-07-31T04:35:07;97718.22;;;14.60;100.00
73103;BME280;61294;65.988;29.172;2023-07-31T04:37:33;97722.78;;;14.57;100.00
73103;BME280;61294;65.988;29.172;2023-07-31T04:39:59;97722.16;;;14.75;100.00
73103;BME280;61294;65.988;29.172;2023-07-31T04:42:24;97726.06;;;14.89;100.00
73103;BME280;61294;65.988;29.172;2023-07-31T04:44:50;97731.19;;;14.93;100.00
73103;BME280;61294;65.988;29.172;2023-07-31T04:47:18;97738.25;;;14.94;100.00
73103;BME280;61294;65.988;29.172;2023-07-31T04:49:44;97726.56;;;14.75;100.00
73103;BME280;61294;65.988;29.172;2023-07-31T04:52:10;97736.75;;;14.87;100.00
73103;BME280;61294;65.988;29.172;2023-07-31T04:54:36;97740.91;;;14.94;100.00
73103;BME280;61294;65.988;29.172;2023-07-31T04:57:01;97718.81;;;14.94;100.00
73103;BME280;61294;65.988;29.172;2023-07-31T04:59:27;97740.72;;;15.23;100.00
73103;BME280;61294;65.988;29.172;2023-07-31T05:01:53;97739.56;;;15.30;100.00
73103;BME280;61294;65.988;29.172;2023-07-31T05:04:19;97733.41;;;15.29;100.00
73103;BME280;61294;65.988;29.172;2023-07-31T05:06:45;97740.78;;;15.21;100.00
73103;BME280;61294;65.988;29.172;2023-07-31T05:09:11;97725.66;;;15.23;100.00
73103;BME280;61294;65.988;29.172;2023-07-31T05:11:37;97739.56;;;15.30;100.00
73103;BME280;61294;65.988;29.172;2023-07-31T05:14:03;97727.06;;;15.33;100.00
73103;BME280;61294;65.988;29.172;2023-07-31T05:16:29;97732.13;;;15.40;100.00
73103;BME280;61294;65.988;29.172;2023-07-31T05:18:54;97735.28;;;15.49;100.00
73103;BME280;61294;65.988;29.172;2023-07-31T05:21:20;97741.50;;;15.48;99.61
73103;BME280;61294;65.988;29.172;2023-07-31T05:23:46;97736.25;;;15.47;99.04
73103;BME280;61294;65.988;29.172;2023-07-31T05:26:13;97742.69;;;15.41;99.46
73103;BME280;61294;65.988;29.172;2023-07-31T05:28:39;97719.84;;;15.37;98.66
73103;BME280;61294;65.988;29.172;2023-07-31T05:31:05;97733.22;;;15.56;99.73
73103;BME280;61294;65.988;29.172;2023-07-31T05:33:32;97733.81;;;15.64;98.42
73103;BME280;61294;65.988;29.172;2023-07-31T05:35:58;97700.22;;;15.63;99.06
73103;BME280;61294;65.988;29.172;2023-07-31T05:38:24;97699.78;;;15.74;98.08
73103;BME280;61294;65.988;29.172;2023-07-31T05:40:50;97726.81;;;15.85;96.65
73103;BME280;61294;65.988;29.172;2023-07-31T05:43:15;97731.19;;;15.86;96.09
73103;BME280;61294;65.988;29.172;2023-07-31T05:45:44;97732.69;;;16.14;96.65
73103;BME280;61294;65.988;29.172;2023-07-31T05:48:10;97724.50;;;15.98;94.25
73103;BME280;61294;65.988;29.172;2023-07-31T05:50:36;97737.41;;;16.08;94.23
73103;BME280;61294;65.988;29.172;2023-07-31T05:53:04;97728.81;;;16.01;93.88
73103;BME280;61294;65.988;29.172;2023-07-31T05:55:30;97698.63;;;15.81;94.31
73103;BME280;61294;65.988;29.172;2023-07-31T05:57:56;97735.81;;;16.03;94.14
73103;BME280;61294;65.988;29.172;2023-07-31T06:00:22;97746.97;;;16.12;94.82
73103;BME280;61294;65.988;29.172;2023-07-31T06:02:48;97738.81;;;16.16;94.79
73103;BME280;61294;65.988;29.172;2023-07-31T06:05:14;97725.69;;;15.91;94.66
73103;BME280;61294;65.988;29.172;2023-07-31T06:07:40;97741.19;;;15.80;95.69
73103;BME280;61294;65.988;29.172;2023-07-31T06:10:06;97723.78;;;15.49;96.59
73103;BME280;61294;65.988;29.172;2023-07-31T06:12:32;97739.44;;;15.33;96.53
73103;BME280;61294;65.988;29.172;2023-07-31T06:14:58;97731.16;;;15.18;98.10
73103;BME280;61294;65.988;29.172;2023-07-31T06:17:24;97733.22;;;15.10;98.32
73103;BME280;61294;65.988;29.172;2023-07-31T06:19:52;97722.22;;;14.97;98.57
73103;BME280;61294;65.988;29.172;2023-07-31T06:22:18;97734.25;;;15.06;99.24
73103;BME280;61294;65.988;29.172;2023-07-31T06:24:44;97729.19;;;15.00;99.17
73103;BME280;61294;65.988;29.172;2023-07-31T06:27:10;97712.69;;;14.92;99.79
73103;BME280;61294;65.988;29.172;2023-07-31T06:29:37;97731.97;;;14.97;99.40
73103;BME280;61294;65.988;29.172;2023-07-31T06:32:03;97702.16;;;14.90;99.78
73103;BME280;61294;65.988;29.172;2023-07-31T06:34:29;97705.16;;;15.05;100.00
73103;BME280;61294;65.988;29.172;2023-07-31T06:36:56;97716.91;;;15.21;100.00
73103;BME280;61294;65.988;29.172;2023-07-31T06:39:22;97708.78;;;15.26;100.00
73103;BME280;61294;65.988;29.172;2023-07-31T06:41:48;97714.72;;;15.32;99.23
73103;BME280;61294;65.988;29.172;2023-07-31T06:44:14;97720.28;;;15.48;99.12
73103;BME280;61294;65.988;29.172;2023-07-31T06:46:40;97713.09;;;15.50;98.85
73103;BME280;61294;65.988;29.172;2023-07-31T06:49:05;97704.66;;;15.63;97.96
73103;BME280;61294;65.988;29.172;2023-07-31T06:51:31;97728.63;;;16.05;97.15
73103;BME280;61294;65.988;29.172;2023-07-31T06:53:58;97707.19;;;16.51;95.90
73103;BME280;61294;65.988;29.172;2023-07-31T06:56:23;97739.88;;;16.74;93.72
73103;BME280;61294;65.988;29.172;2023-07-31T06:58:49;97732.84;;;16.73;92.85
73103;BME280;61294;65.988;29.172;2023-07-31T07:01:15;97742.53;;;16.74;93.06
73103;BME280;61294;65.988;29.172;2023-07-31T07:03:41;97742.16;;;16.63;91.73
73103;BME280;61294;65.988;29.172;2023-07-31T07:06:07;97738.28;;;16.70;90.54
73103;BME280;61294;65.988;29.172;2023-07-31T07:08:32;97728.47;;;16.93;89.79
73103;BME280;61294;65.988;29.172;2023-07-31T07:10:58;97728.63;;;17.08;87.90
73103;BME280;61294;65.988;29.172;2023-07-31T07:13:24;97732.25;;;17.27;87.72
73103;BME280;61294;65.988;29.172;2023-07-31T07:15:50;97734.03;;;17.45;87.33
73103;BME280;61294;65.988;29.172;2023-07-31T07:18:17;97742.66;;;17.69;85.51
73103;BME280;61294;65.988;29.172;2023-07-31T07:20:50;97747.94;;;17.88;83.25
73103;BME280;61294;65.988;29.172;2023-07-31T07:23:17;97725.34;;;17.78;83.33
73103;BME280;61294;65.988;29.172;2023-07-31T07:25:43;97752.97;;;17.58;81.24
73103;BME280;61294;65.988;29.172;2023-07-31T07:28:09;97757.63;;;17.53;82.68
73103;BME280;61294;65.988;29.172;2023-07-31T07:30:35;97752.09;;;17.57;83.57
73103;BME280;61294;65.988;29.172;2023-07-31T07:33:01;97760.44;;;17.50;83.62
73103;BME280;61294;65.988;29.172;2023-07-31T07:35:27;97766.72;;;17.49;84.45
73103;BME280;61294;65.988;29.172;2023-07-31T07:37:53;97758.66;;;17.50;84.00
73103;BME280;61294;65.988;29.172;2023-07-31T07:40:19;97757.59;;;17.54;82.19
73103;BME280;61294;65.988;29.172;2023-07-31T07:42:45;97761.75;;;17.60;83.01
73103;BME280;61294;65.988;29.172;2023-07-31T07:45:12;97756.53;;;17.57;82.41
73103;BME280;61294;65.988;29.172;2023-07-31T07:47:40;97727.34;;;17.36;82.89
73103;BME280;61294;65.988;29.172;2023-07-31T07:50:06;97714.97;;;17.35;81.59
73103;BME280;61294;65.988;29.172;2023-07-31T07:52:32;97768.88;;;17.79;82.34
73103;BME280;61294;65.988;29.172;2023-07-31T07:54:58;97759.75;;;17.83;80.25
73103;BME280;61294;65.988;29.172;2023-07-31T07:57:24;97775.75;;;18.02;80.48
73103;BME280;61294;65.988;29.172;2023-07-31T07:59:49;97770.44;;;18.02;80.49
73103;BME280;61294;65.988;29.172;2023-07-31T08:02:15;97771.78;;;18.10;81.40
73103;BME280;61294;65.988;29.172;2023-07-31T08:04:41;97770.00;;;18.28;80.81
73103;BME280;61294;65.988;29.172;2023-07-31T08:07:07;97775.34;;;18.63;80.74
73103;BME280;61294;65.988;29.172;2023-07-31T08:09:32;97748.97;;;18.75;80.93
73103;BME280;61294;65.988;29.172;2023-07-31T08:11:58;97768.06;;;19.18;80.44
73103;BME280;61294;65.988;29.172;2023-07-31T08:14:28;97769.75;;;19.03;73.52
73103;BME280;61294;65.988;29.172;2023-07-31T08:16:54;97769.97;;;19.16;76.96
73103;BME280;61294;65.988;29.172;2023-07-31T08:19:19;97779.00;;;19.13;78.47
73103;BME280;61294;65.988;29.172;2023-07-31T08:21:45;97772.00;;;19.11;78.99
73103;BME280;61294;65.988;29.172;2023-07-31T08:24:11;97769.47;;;18.92;78.78
73103;BME280;61294;65.988;29.172;2023-07-31T08:26:37;97778.50;;;18.89;79.05
73103;BME280;61294;65.988;29.172;2023-07-31T08:29:02;97791.56;;;18.76;77.29
73103;BME280;61294;65.988;29.172;2023-07-31T08:31:28;97787.91;;;18.61;78.27
73103;BME280;61294;65.988;29.172;2023-07-31T08:33:55;97790.66;;;18.60;76.39
73103;BME280;61294;65.988;29.172;2023-07-31T08:36:21;97796.06;;;18.58;78.15
73103;BME280;61294;65.988;29.172;2023-07-31T08:38:46;97786.88;;;18.46;76.24
73103;BME280;61294;65.988;29.172;2023-07-31T08:41:12;97784.84;;;18.52;78.43
73103;BME280;61294;65.988;29.172;2023-07-31T08:43:44;97774.66;;;18.60;79.09
73103;BME280;61294;65.988;29.172;2023-07-31T08:46:11;97789.78;;;18.77;79.48
73103;BME280;61294;65.988;29.172;2023-07-31T08:48:37;97761.94;;;18.65;80.74
73103;BME280;61294;65.988;29.172;2023-07-31T08:51:04;97786.41;;;18.91;81.11
73103;BME280;61294;65.988;29.172;2023-07-31T08:53:29;97793.78;;;19.03;79.15
73103;BME280;61294;65.988;29.172;2023-07-31T08:55:56;97796.75;;;19.14;79.53
73103;BME280;61294;65.988;29.172;2023-07-31T08:58:24;97790.59;;;19.30;78.47
73103;BME280;61294;65.988;29.172;2023-07-31T09:00:51;97765.47;;;19.50;78.09
73103;BME280;61294;65.988;29.172;2023-07-31T09:03:18;97775.72;;;19.74;77.55
73103;BME280;61294;65.988;29.172;2023-07-31T09:05:46;97789.34;;;19.69;73.65
73103;BME280;61294;65.988;29.172;2023-07-31T09:08:13;97780.75;;;19.64;75.03
73103;BME280;61294;65.988;29.172;2023-07-31T09:10:45;97790.13;;;19.71;73.94
73103;BME280;61294;65.988;29.172;2023-07-31T09:13:15;97789.88;;;19.76;72.58
73103;BME280;61294;65.988;29.172;2023-07-31T09:15:44;97778.25;;;19.77;74.16
73103;BME280;61294;65.988;29.172;2023-07-31T09:18:10;97797.84;;;19.93;75.19
73103;BME280;61294;65.988;29.172;2023-07-31T09:20:37;97812.25;;;20.07;72.14
73103;BME280;61294;65.988;29.172;2023-07-31T09:23:13;97787.47;;;20.03;73.17
73103;BME280;61294;65.988;29.172;2023-07-31T09:25:43;97789.91;;;20.24;73.43
73103;BME280;61294;65.988;29.172;2023-07-31T09:28:10;97807.34;;;20.45;74.01
73103;BME280;61294;65.988;29.172;2023-07-31T09:30:48;97792.50;;;20.56;72.80
73103;BME280;61294;65.988;29.172;2023-07-31T09:33:14;97791.75;;;20.84;71.20
73103;BME280;61294;65.988;29.172;2023-07-31T09:35:41;97795.50;;;21.25;68.93
73103;BME280;61294;65.988;29.172;2023-07-31T09:38:12;97804.72;;;21.64;69.69
73103;BME280;61294;65.988;29.172;2023-07-31T09:40:48;97776.78;;;21.68;67.74
73103;BME280;61294;65.988;29.172;2023-07-31T09:43:21;97801.81;;;21.81;65.10
73103;BME280;61294;65.988;29.172;2023-07-31T09:45:47;97808.22;;;21.93;67.55
73103;BME280;61294;65.988;29.172;2023-07-31T09:48:17;97796.13;;;22.00;65.13
73103;BME280;61294;65.988;29.172;2023-07-31T09:50:46;97799.69;;;22.28;65.92
73103;BME280;61294;65.988;29.172;2023-07-31T09:53:12;97800.00;;;22.23;64.43
73103;BME280;61294;65.988;29.172;2023-07-31T09:55:39;97801.41;;;22.29;66.45
73103;BME280;61294;65.988;29.172;2023-07-31T09:58:07;97805.63;;;23.26;65.23
73103;BME280;61294;65.988;29.172;2023-07-31T10:00:33;97796.53;;;23.92;59.62
73103;BME280;61294;65.988;29.172;2023-07-31T10:03:01;97790.84;;;24.21;60.27
73103;BME280;61294;65.988;29.172;2023-07-31T10:05:32;97793.63;;;23.82;61.97
73103;BME280;61294;65.988;29.172;2023-07-31T10:07:59;97802.63;;;24.31;60.56
73103;BME280;61294;65.988;29.172;2023-07-31T10:10:26;97787.19;;;24.46;59.41
73103;BME280;61294;65.988;29.172;2023-07-31T10:12:54;97804.34;;;24.32;57.26
73103;BME280;61294;65.988;29.172;2023-07-31T10:15:20;97809.34;;;23.88;57.60
73103;BME280;61294;65.988;29.172;2023-07-31T10:17:50;97808.66;;;24.10;57.94
73103;BME280;61294;65.988;29.172;2023-07-31T10:20:17;97817.06;;;24.06;56.51
73103;BME280;61294;65.988;29.172;2023-07-31T10:22:43;97815.13;;;23.82;56.22
73103;BME280;61294;65.988;29.172;2023-07-31T10:25:11;97810.31;;;22.97;58.33
73103;BME280;61294;65.988;29.172;2023-07-31T10:27:38;97816.94;;;23.19;60.63
73103;BME280;61294;65.988;29.172;2023-07-31T10:30:08;97812.06;;;23.11;60.48
73103;BME280;61294;65.988;29.172;2023-07-31T10:32:35;97798.50;;;23.00;60.17
73103;BME280;61294;65.988;29.172;2023-07-31T10:35:02;97820.09;;;22.98;56.98
73103;BME280;61294;65.988;29.172;2023-07-31T10:37:36;97816.38;;;23.39;56.31
73103;BME280;61294;65.988;29.172;2023-07-31T10:40:04;97814.06;;;23.85;57.13
73103;BME280;61294;65.988;29.172;2023-07-31T10:42:36;97811.09;;;23.64;55.73
73103;BME280;61294;65.988;29.172;2023-07-31T10:45:08;97790.16;;;23.17;56.37
73103;BME280;61294;65.988;29.172;2023-07-31T10:47:45;97802.06;;;23.00;57.80
73103;BME280;61294;65.988;29.172;2023-07-31T10:50:20;97807.56;;;22.71;58.14
73103;BME280;61294;65.988;29.172;2023-07-31T10:52:48;97813.78;;;22.59;60.11
73103;BME280;61294;65.988;29.172;2023-07-31T10:57:49;97789.03;;;22.41;59.76
73103;BME280;61294;65.988;29.172;2023-07-31T11:00:26;97804.75;;;22.60;59.22
73103;BME280;61294;65.988;29.172;2023-07-31T11:02:57;97787.59;;;22.63;58.44
73103;BME280;61294;65.988;29.172;2023-07-31T11:05:47;97822.03;;;23.09;58.58
73103;BME280;61294;65.988;29.172;2023-07-31T11:08:21;97824.44;;;23.52;56.48
73103;BME280;61294;65.988;29.172;2023-07-31T11:10:51;97817.56;;;23.35;56.14
73103;BME280;61294;65.988;29.172;2023-07-31T11:13:17;97803.53;;;23.04;57.49
73103;BME280;61294;65.988;29.172;2023-07-31T11:15:43;97824.06;;;22.92;58.93
73103;BME280;61294;65.988;29.172;2023-07-31T11:18:08;97821.47;;;22.91;57.75
73103;BME280;61294;65.988;29.172;2023-07-31T11:20:37;97830.47;;;22.77;58.97
73103;BME280;61294;65.988;29.172;2023-07-31T11:23:08;97834.09;;;22.21;59.68
73103;BME280;61294;65.988;29.172;2023-07-31T11:25:35;97830.41;;;22.10;59.75
73103;BME280;61294;65.988;29.172;2023-07-31T11:28:08;97834.72;;;22.12;61.97
73103;BME280;61294;65.988;29.172;2023-07-31T11:30:35;97830.66;;;22.19;61.37
73103;BME280;61294;65.988;29.172;2023-07-31T11:33:02;97815.28;;;21.94;59.41
73103;BME280;61294;65.988;29.172;2023-07-31T11:35:40;97824.41;;;21.92;60.13
73103;BME280;61294;65.988;29.172;2023-07-31T11:38:07;97809.28;;;21.76;58.95
73103;BME280;61294;65.988;29.172;2023-07-31T11:40:44;97841.75;;;21.57;60.65
73103;BME280;61294;65.988;29.172;2023-07-31T11:43:10;97836.66;;;21.96;62.34
73103;BME280;61294;65.988;29.172;2023-07-31T11:45:48;97846.22;;;22.00;62.73
73103;BME280;61294;65.988;29.172;2023-07-31T11:48:24;97836.69;;;21.52;59.88
73103;BME280;61294;65.988;29.172;2023-07-31T11:50:53;97844.78;;;21.51;62.72
73103;BME280;61294;65.988;29.172;2023-07-31T11:53:33;97847.88;;;21.88;62.21
73103;BME280;61294;65.988;29.172;2023-07-31T11:56:01;97828.44;;;22.26;62.05
73103;BME280;61294;65.988;29.172;2023-07-31T11:58:31;97845.47;;;22.67;61.43
73103;BME280;61294;65.988;29.172;2023-07-31T12:00:58;97839.72;;;22.86;58.94
73103;BME280;61294;65.988;29.172;2023-07-31T12:03:25;97833.34;;;23.27;57.82
73103;BME280;61294;65.988;29.172;2023-07-31T12:05:50;97807.66;;;23.87;55.70
73103;BME280;61294;65.988;29.172;2023-07-31T12:08:21;97835.09;;;24.17;54.65
73103;BME280;61294;65.988;29.172;2023-07-31T12:10:47;97840.16;;;24.70;52.16
73103;BME280;61294;65.988;29.172;2023-07-31T12:13:24;97831.50;;;25.13;52.12
73103;BME280;61294;65.988;29.172;2023-07-31T12:15:54;97825.06;;;25.27;52.97
73103;BME280;61294;65.988;29.172;2023-07-31T12:18:21;97825.75;;;28.91;45.83
73103;BME280;61294;65.988;29.172;2023-07-31T12:20:54;97816.25;;;31.01;41.65
73103;BME280;61294;65.988;29.172;2023-07-31T12:23:27;97823.00;;;31.33;40.84
73103;BME280;61294;65.988;29.172;2023-07-31T12:26:12;97820.41;;;33.52;37.30
73103;BME280;61294;65.988;29.172;2023-07-31T12:28:49;97834.31;;;32.50;38.37
73103;BME280;61294;65.988;29.172;2023-07-31T12:31:21;97823.75;;;29.70;39.64
73103;BME280;61294;65.988;29.172;2023-07-31T12:33:48;97834.44;;;28.65;43.41
73103;BME280;61294;65.988;29.172;2023-07-31T12:36:21;97821.78;;;27.84;42.92
73103;BME280;61294;65.988;29.172;2023-07-31T12:38:47;97813.94;;;27.50;44.48
73103;BME280;61294;65.988;29.172;2023-07-31T12:41:13;97822.84;;;26.34;46.72
73103;BME280;61294;65.988;29.172;2023-07-31T12:43:41;97828.88;;;25.81;49.31
73103;BME280;61294;65.988;29.172;2023-07-31T12:46:07;97799.00;;;25.61;47.02
73103;BME280;61294;65.988;29.172;2023-07-31T12:48:34;97822.25;;;25.28;47.47
73103;BME280;61294;65.988;29.172;2023-07-31T12:51:00;97810.06;;;25.00;49.36
73103;BME280;61294;65.988;29.172;2023-07-31T12:53:26;97819.94;;;24.64;49.14